Time;durP1;ratioP1;P1;durP2;ratioP2;P2;SDS_P1;SDS_P2;PMS_P1;PMS_P2;Temp;Humidity;BMP_temperature;BMP_pressure;BME280_temperature;BME280_humidity;BME280_pressure;Samples;Min_cycle;Max_cycle;Signal;HPM_P1;HPM_P2
2023/07/25 00:00:18;;;;;;;5.72;1.98;;;;;;;17.82;63.00;98795.06;5070227;28;20530;-81
2023/07/25 00:02:44;;;;;;;5.30;1.88;;;;;;;17.78;63.06;98793.69;5066890;28;20542;-81
2023/07/25 00:05:11;;;;;;;7.97;2.28;;;;;;;17.74;63.22;98800.34;5055970;28;20048;-80
2023/07/25 00:07:37;;;;;;;7.80;2.78;;;;;;;17.68;63.37;98795.66;5050230;28;20118;-81
2023/07/25 00:10:04;;;;;;;10.63;2.70;;;;;;;17.63;63.03;98789.94;5050230;28;20051;-81
2023/07/25 00:12:31;;;;;;;8.98;2.95;;;;;;;17.58;63.47;98790.44;5056846;28;20124;-81
2023/07/25 00:14:57;;;;;;;7.20;2.95;;;;;;;17.54;63.62;98789.88;5070066;28;20049;-79
2023/07/25 00:17:24;;;;;;;7.50;2.67;;;;;;;17.52;63.65;98799.88;5066560;28;20049;-81
2023/07/25 00:19:50;;;;;;;5.68;2.40;;;;;;;17.49;63.44;98794.84;5074225;28;20138;-81
2023/07/25 00:22:17;;;;;;;4.07;2.47;;;;;;;17.45;63.85;98786.34;5066848;28;20052;-81
2023/07/25 00:24:43;;;;;;;6.95;2.65;;;;;;;17.43;63.92;98798.97;5055097;28;20045;-80
2023/07/25 00:27:10;;;;;;;6.28;2.50;;;;;;;17.43;64.18;98808.78;5063752;28;20048;-81
2023/07/25 00:29:36;;;;;;;11.38;2.88;;;;;;;17.41;64.39;98808.09;5056147;28;22607;-81
2023/07/25 00:32:03;;;;;;;10.02;3.00;;;;;;;17.39;64.45;98802.09;5061061;28;20037;-81
2023/07/25 00:34:30;;;;;;;5.93;2.90;;;;;;;17.38;64.50;98805.78;5071934;28;20115;-80
2023/07/25 00:36:56;;;;;;;6.20;2.55;;;;;;;17.37;64.09;98809.41;5055440;28;20041;-80
2023/07/25 00:39:23;;;;;;;4.88;2.70;;;;;;;17.35;64.42;98812.25;5073853;28;20119;-81
2023/07/25 00:41:49;;;;;;;6.88;3.20;;;;;;;17.35;64.22;98819.38;5044297;28;20059;-80
2023/07/25 00:44:15;;;;;;;7.65;3.00;;;;;;;17.30;64.07;98823.31;5067488;28;20382;-81
2023/07/25 00:46:43;;;;;;;5.85;2.58;;;;;;;17.28;64.26;98817.34;5071332;28;20152;-81
2023/07/25 00:49:10;;;;;;;7.05;2.97;;;;;;;17.26;64.25;98823.78;5073704;28;20041;-80
2023/07/25 00:51:37;;;;;;;5.70;2.63;;;;;;;17.24;64.20;98821.28;5053794;28;20113;-81
2023/07/25 00:54:05;;;;;;;9.00;2.70;;;;;;;17.21;64.39;98816.28;5053418;28;20098;-81
2023/07/25 00:56:31;;;;;;;5.82;2.50;;;;;;;17.19;64.27;98826.22;5055522;28;20045;-81
2023/07/25 00:58:58;;;;;;;4.55;2.72;;;;;;;17.16;64.73;98826.53;5058342;28;20501;-81
2023/07/25 01:01:25;;;;;;;9.70;3.05;;;;;;;17.14;64.91;98836.47;5065135;28;20496;-81
2023/07/25 01:03:55;;;;;;;6.72;2.60;;;;;;;17.13;64.83;98833.00;5036952;28;20052;-80
2023/07/25 01:06:21;;;;;;;12.35;2.90;;;;;;;17.13;64.95;98827.69;5055599;28;20044;-81
2023/07/25 01:08:50;;;;;;;5.40;2.53;;;;;;;17.13;65.20;98825.03;5053169;28;20098;-81
2023/07/25 01:11:17;;;;;;;5.95;2.65;;;;;;;17.14;64.94;98833.81;5053649;28;20045;-81
2023/07/25 01:13:44;;;;;;;6.15;2.33;;;;;;;17.13;64.92;98827.69;5072183;28;20139;-81
2023/07/25 01:16:14;;;;;;;6.60;2.60;;;;;;;17.13;65.42;98832.16;5072974;28;20127;-80
2023/07/25 01:18:42;;;;;;;6.53;2.55;;;;;;;17.15;65.00;98827.50;5060314;28;20045;-81
2023/07/25 01:21:09;;;;;;;5.72;2.92;;;;;;;17.17;64.82;98828.22;5049791;28;20046;-81
2023/07/25 01:23:36;;;;;;;8.60;2.63;;;;;;;17.15;64.77;98822.19;5054233;28;20045;-81
2023/07/25 01:26:03;;;;;;;9.60;3.35;;;;;;;17.16;64.63;98823.88;5041487;28;20045;-81
2023/07/25 01:28:30;;;;;;;6.35;3.17;;;;;;;17.13;64.45;98833.00;5071689;28;20485;-81
2023/07/25 01:30:57;;;;;;;9.20;2.63;;;;;;;17.13;64.34;98832.16;5050511;28;20124;-80
2023/07/25 01:33:23;;;;;;;5.65;2.58;;;;;;;17.09;64.46;98828.13;5068101;28;20127;-81
2023/07/25 01:35:50;;;;;;;5.80;2.03;;;;;;;17.05;64.42;98835.59;5055694;28;20071;-81
2023/07/25 01:38:16;;;;;;;5.22;2.80;;;;;;;17.02;64.47;98828.72;5048942;28;20489;-80
2023/07/25 01:40:43;;;;;;;6.32;2.55;;;;;;;16.99;64.57;98826.38;5051863;28;20106;-81
2023/07/25 01:43:09;;;;;;;5.25;2.78;;;;;;;16.97;64.46;98827.50;5072572;28;20194;-80
2023/07/25 01:45:36;;;;;;;5.78;2.60;;;;;;;16.94;64.75;98821.50;5072580;28;20041;-81
2023/07/25 01:48:02;;;;;;;4.90;2.78;;;;;;;16.92;64.79;98822.63;5037383;28;20045;-80
2023/07/25 01:50:30;;;;;;;7.95;2.60;;;;;;;16.91;64.85;98826.28;5048739;28;20258;-80
2023/07/25 01:52:56;;;;;;;5.78;2.42;;;;;;;16.90;64.74;98829.94;5052298;28;20085;-81
2023/07/25 01:55:22;;;;;;;8.90;3.08;;;;;;;16.88;64.84;98823.91;5052274;28;20065;-80
2023/07/25 01:57:49;;;;;;;8.10;2.85;;;;;;;16.87;64.45;98814.28;5069627;28;20057;-81
2023/07/25 02:00:15;;;;;;;7.45;2.60;;;;;;;16.85;64.69;98825.06;5060307;28;20107;-81
2023/07/25 02:02:42;;;;;;;13.13;2.88;;;;;;;16.83;64.21;98820.88;5052303;28;20043;-81
2023/07/25 02:05:09;;;;;;;4.90;2.78;;;;;;;16.81;64.42;98821.03;5044169;28;20059;-81
2023/07/25 02:07:36;;;;;;;6.38;2.70;;;;;;;16.77;64.04;98820.50;5051453;28;20128;-81
2023/07/25 02:10:03;;;;;;;7.53;3.00;;;;;;;16.74;64.10;98820.81;5072291;28;20094;-81
2023/07/25 02:12:30;;;;;;;6.88;2.40;;;;;;;16.70;64.15;98818.63;5062737;28;20045;-81
2023/07/25 02:14:57;;;;;;;4.80;2.40;;;;;;;16.68;64.30;98818.75;5050834;28;20084;-80
2023/07/25 02:17:23;;;;;;;4.53;2.60;;;;;;;16.64;64.21;98820.03;5058771;28;20141;-81
2023/07/25 02:19:50;;;;;;;5.60;2.67;;;;;;;16.59;64.34;98811.69;5070956;28;20098;-81
2023/07/25 02:22:16;;;;;;;5.35;2.83;;;;;;;16.56;64.31;98802.19;5064490;28;20590;-80
2023/07/25 02:24:43;;;;;;;7.32;2.85;;;;;;;16.53;64.49;98800.66;5051263;28;20444;-80
2023/07/25 02:27:09;;;;;;;5.97;2.80;;;;;;;16.51;64.70;98799.16;5065260;28;20048;-81
2023/07/25 02:29:36;;;;;;;10.45;3.00;;;;;;;16.49;64.63;98793.97;5063388;28;20546;-81
2023/07/25 02:32:03;;;;;;;8.02;2.88;;;;;;;16.47;64.53;98789.81;5055578;28;20044;-80
2023/07/25 02:34:29;;;;;;;8.30;2.90;;;;;;;16.46;64.34;98790.78;5062069;28;20139;-81
2023/07/25 02:36:55;;;;;;;5.38;3.08;;;;;;;16.41;64.19;98792.06;5033835;28;20053;-81
2023/07/25 02:39:22;;;;;;;7.63;2.72;;;;;;;16.37;64.31;98788.03;5051351;28;20055;-81
2023/07/25 02:41:48;;;;;;;7.28;3.33;;;;;;;16.35;64.24;98786.53;5053631;28;20446;-81
2023/07/25 02:44:15;;;;;;;3.95;2.50;;;;;;;16.32;64.32;98784.16;5070032;28;20147;-81
2023/07/25 02:46:41;;;;;;;7.25;2.97;;;;;;;16.28;64.68;98788.94;5068371;28;20057;-81
2023/07/25 02:49:08;;;;;;;7.00;3.30;;;;;;;16.24;64.68;98788.41;5051459;28;20053;-81
2023/07/25 02:51:34;;;;;;;9.18;2.97;;;;;;;16.22;64.69;98779.75;5051559;28;20468;-80
2023/07/25 02:54:01;;;;;;;7.47;2.97;;;;;;;16.20;64.80;98784.38;5071303;28;20123;-81
2023/07/25 02:56:28;;;;;;;8.65;3.10;;;;;;;16.19;64.85;98777.41;5060885;28;20128;-81
2023/07/25 02:58:55;;;;;;;9.30;2.85;;;;;;;16.18;64.62;98786.34;5068745;28;20051;-81
2023/07/25 03:01:21;;;;;;;8.75;3.40;;;;;;;16.17;64.71;98775.84;5070588;28;20048;-80
2023/07/25 03:03:48;;;;;;;5.40;2.80;;;;;;;16.15;64.84;98778.69;5071233;28;20163;-81
2023/07/25 03:06:14;;;;;;;5.30;2.88;;;;;;;16.12;64.62;98778.97;5055504;28;20104;-81
2023/07/25 03:08:41;;;;;;;5.53;2.83;;;;;;;16.08;64.40;98772.28;5033204;28;20083;-81
2023/07/25 03:11:07;;;;;;;7.65;3.05;;;;;;;16.04;64.38;98769.09;5050493;28;20047;-80
2023/07/25 03:13:33;;;;;;;6.30;2.95;;;;;;;16.01;64.51;98766.72;5050758;28;20057;-81
2023/07/25 03:16:00;;;;;;;7.72;2.78;;;;;;;15.97;64.43;98774.16;5032796;28;20048;-81
2023/07/25 03:18:26;;;;;;;5.13;2.75;;;;;;;15.95;64.53;98783.22;5050699;28;20461;-81
2023/07/25 03:23:20;;;;;;;4.82;2.80;;;;;;;15.87;64.55;98775.97;5057373;22;20497;-74
2023/07/25 03:25:47;;;;;;;5.80;3.17;;;;;;;15.85;64.71;98783.25;5052775;28;20108;-74
2023/07/25 03:28:14;;;;;;;6.78;3.05;;;;;;;15.82;64.83;98781.72;5038334;28;20517;-74
2023/07/25 03:30:41;;;;;;;11.43;3.70;;;;;;;15.81;64.71;98785.34;5049541;28;20102;-75
2023/07/25 03:33:07;;;;;;;8.00;3.22;;;;;;;15.80;64.66;98774.88;5071232;28;20080;-74
2023/07/25 03:35:34;;;;;;;6.70;2.70;;;;;;;15.78;64.82;98775.03;5070776;28;20508;-75
2023/07/25 03:38:01;;;;;;;7.68;2.97;;;;;;;15.76;64.86;98771.69;5070771;28;20087;-75
2023/07/25 03:40:27;;;;;;;5.53;3.13;;;;;;;15.74;64.92;98771.81;5070883;28;20527;-75
2023/07/25 03:42:54;;;;;;;7.80;2.72;;;;;;;15.72;65.16;98773.81;5050594;28;20044;-75
2023/07/25 03:45:20;;;;;;;9.80;3.00;;;;;;;15.70;65.10;98773.09;5052134;28;20044;-75
2023/07/25 03:47:47;;;;;;;7.18;3.47;;;;;;;15.70;65.15;98780.25;5039149;28;20046;-75
2023/07/25 03:50:14;;;;;;;5.60;3.00;;;;;;;15.68;65.19;98777.72;5050264;28;20053;-74
2023/07/25 03:52:40;;;;;;;7.22;3.00;;;;;;;15.67;65.14;98786.66;5053614;28;20055;-74
2023/07/25 03:55:07;;;;;;;7.85;2.45;;;;;;;15.66;65.18;98777.03;5053875;28;20481;-75
2023/07/25 03:57:34;;;;;;;9.00;3.45;;;;;;;15.67;65.19;98783.19;5069039;28;20552;-74
2023/07/25 04:00:00;;;;;;;12.07;3.03;;;;;;;15.66;65.17;98777.03;5067833;28;20053;-74
2023/07/25 04:02:27;;;;;;;6.00;2.92;;;;;;;15.65;65.31;98778.00;5054284;28;20431;-74
2023/07/25 04:04:54;;;;;;;9.48;3.22;;;;;;;15.65;65.35;98785.97;5053964;28;20098;-74
2023/07/25 04:07:20;;;;;;;7.88;2.92;;;;;;;15.64;65.23;98787.78;5069240;28;20048;-74
2023/07/25 04:09:47;;;;;;;11.88;3.55;;;;;;;15.64;65.52;98787.78;5074300;28;20064;-74
2023/07/25 04:12:13;;;;;;;6.68;2.80;;;;;;;15.66;65.75;98792.13;5067168;28;20045;-74
2023/07/25 04:14:40;;;;;;;7.32;3.08;;;;;;;15.65;65.72;98801.88;5053595;28;20053;-74
2023/07/25 04:17:07;;;;;;;8.23;2.92;;;;;;;15.67;65.73;98799.94;5058367;28;20055;-74
2023/07/25 04:19:33;;;;;;;8.73;3.17;;;;;;;15.68;65.71;98801.59;5056322;28;20049;-74
2023/07/25 04:22:00;;;;;;;7.95;3.22;;;;;;;15.70;66.28;98801.47;5068708;28;20136;-74
2023/07/25 04:24:26;;;;;;;5.70;2.78;;;;;;;15.72;65.75;98799.50;5061348;28;20659;-74
2023/07/25 04:26:53;;;;;;;7.72;2.80;;;;;;;15.72;65.44;98796.84;5056047;28;20491;-75
2023/07/25 04:29:19;;;;;;;10.75;3.17;;;;;;;15.72;65.79;98795.03;5059926;28;20417;-74
2023/07/25 04:31:47;;;;;;;5.25;2.97;;;;;;;15.72;65.72;98795.03;5071430;28;20201;-74
2023/07/25 04:34:14;;;;;;;7.85;3.15;;;;;;;15.74;65.66;98789.59;5067556;28;20041;-75
2023/07/25 04:36:41;;;;;;;6.22;3.08;;;;;;;15.73;65.73;98791.38;5040620;28;20122;-74
2023/07/25 04:39:08;;;;;;;8.23;3.42;;;;;;;15.73;65.73;98794.03;5053800;28;20053;-74
2023/07/25 04:41:34;;;;;;;8.32;3.17;;;;;;;15.73;65.67;98795.84;5054121;28;20156;-74
2023/07/25 04:44:01;;;;;;;9.65;3.28;;;;;;;15.74;65.57;98789.59;5055812;28;20052;-74
2023/07/25 04:46:29;;;;;;;9.98;3.10;;;;;;;15.75;65.88;98791.25;5053675;28;20059;-74
2023/07/25 04:48:57;;;;;;;10.20;3.50;;;;;;;15.76;65.85;98784.94;5073630;28;20102;-74
2023/07/25 04:51:23;;;;;;;10.05;2.70;;;;;;;15.77;65.82;98787.47;5039030;28;20432;-75
2023/07/25 04:53:50;;;;;;;6.07;2.63;;;;;;;15.79;65.65;98797.94;5055736;28;20053;-74
2023/07/25 04:56:17;;;;;;;7.03;2.50;;;;;;;15.79;65.60;98800.59;5069819;28;20123;-74
2023/07/25 04:58:43;;;;;;;5.78;2.80;;;;;;;15.81;65.62;98800.44;5069413;28;20056;-74
2023/07/25 05:01:12;;;;;;;6.88;2.78;;;;;;;15.82;65.74;98810.06;5053495;28;20052;-74
2023/07/25 05:03:38;;;;;;;4.78;2.75;;;;;;;15.83;65.57;98804.63;5070631;28;20515;-74
2023/07/25 05:06:05;;;;;;;10.07;2.70;;;;;;;15.83;65.55;98801.97;5064558;28;20053;-75
2023/07/25 05:08:32;;;;;;;8.93;3.58;;;;;;;15.84;65.61;98803.63;5053144;28;20049;-74
2023/07/25 05:11:01;;;;;;;12.38;3.33;;;;;;;15.85;65.56;98804.50;5052654;28;20501;-75
2023/07/25 05:13:27;;;;;;;6.50;2.72;;;;;;;15.84;65.61;98806.28;5069045;28;20048;-74
2023/07/25 05:15:54;;;;;;;7.20;2.90;;;;;;;15.85;65.61;98800.00;5072886;28;20106;-75
2023/07/25 05:18:20;;;;;;;6.95;3.17;;;;;;;15.86;65.79;98806.16;5073058;28;20045;-74
2023/07/25 05:20:47;;;;;;;5.60;2.83;;;;;;;15.86;65.78;98806.97;5071751;28;20055;-75
2023/07/25 05:23:14;;;;;;;6.45;3.30;;;;;;;15.87;65.76;98807.81;5058103;28;20661;-73
2023/07/25 05:25:40;;;;;;;11.32;3.00;;;;;;;15.88;65.75;98815.63;5052717;28;20045;-74
2023/07/25 05:28:07;;;;;;;6.13;2.88;;;;;;;15.89;65.87;98811.19;5065859;28;20063;-75
2023/07/25 05:30:33;;;;;;;6.93;2.88;;;;;;;15.90;65.98;98807.53;5071012;28;20044;-74
2023/07/25 05:33:00;;;;;;;8.32;3.40;;;;;;;15.90;65.96;98805.69;5072311;28;20044;-75
2023/07/25 05:35:27;;;;;;;10.52;3.33;;;;;;;15.93;66.23;98812.56;5070656;28;20056;-75
2023/07/25 05:37:53;;;;;;;6.35;3.10;;;;;;;15.94;66.15;98819.56;5052576;28;20448;-75
2023/07/25 05:40:20;;;;;;;5.40;2.67;;;;;;;15.98;66.25;98812.97;5034845;28;20049;-74
2023/07/25 05:42:47;;;;;;;5.20;2.90;;;;;;;15.99;66.40;98812.00;5052352;28;20056;-74
2023/07/25 05:45:13;;;;;;;8.30;3.03;;;;;;;16.02;66.44;98806.41;5052388;28;20532;-74
2023/07/25 05:47:40;;;;;;;9.85;3.22;;;;;;;16.07;66.63;98807.78;5061756;28;20045;-73
2023/07/25 05:50:08;;;;;;;6.95;2.80;;;;;;;16.10;66.64;98805.66;5072622;28;20080;-74
2023/07/25 05:52:34;;;;;;;6.90;3.08;;;;;;;16.14;66.75;98806.19;5070834;28;20052;-74
2023/07/25 05:55:01;;;;;;;6.72;2.83;;;;;;;16.20;66.71;98816.25;5054370;28;20048;-73
2023/07/25 05:57:27;;;;;;;8.50;3.13;;;;;;;16.26;66.70;98806.84;5070153;28;20055;-74
2023/07/25 05:59:54;;;;;;;5.30;2.90;;;;;;;16.31;66.75;98803.75;5072443;28;20056;-74
2023/07/25 06:02:21;;;;;;;6.05;2.97;;;;;;;16.36;66.79;98806.78;5055588;28;20048;-74
2023/07/25 06:04:47;;;;;;;8.25;3.10;;;;;;;16.42;66.81;98798.22;5052169;28;20064;-74
2023/07/25 06:07:15;;;;;;;6.90;2.95;;;;;;;16.49;66.74;98804.59;5051832;28;20147;-75
2023/07/25 06:09:42;;;;;;;7.75;2.85;;;;;;;16.54;66.58;98805.00;5052316;28;20055;-76
2023/07/25 06:12:09;;;;;;;6.18;2.17;;;;;;;16.60;66.63;98802.72;5056953;28;20075;-75
2023/07/25 06:14:36;;;;;;;6.25;2.50;;;;;;;16.65;66.58;98803.13;5062722;28;20045;-76
2023/07/25 06:17:03;;;;;;;5.38;2.42;;;;;;;16.70;66.50;98795.53;5055757;28;20059;-76
2023/07/25 06:19:30;;;;;;;9.35;3.05;;;;;;;16.75;66.58;98800.41;5071967;28;20052;-76
2023/07/25 06:21:56;;;;;;;10.68;3.10;;;;;;;16.80;66.49;98804.28;5071826;28;20471;-77
2023/07/25 06:24:23;;;;;;;4.50;2.47;;;;;;;16.86;66.52;98807.31;5070198;28;20055;-76
2023/07/25 06:26:51;;;;;;;10.80;2.90;;;;;;;16.91;66.57;98818.31;5067264;28;20493;-75
2023/07/25 06:29:18;;;;;;;6.65;2.30;;;;;;;16.95;66.39;98811.72;5051521;28;20055;-76
2023/07/25 06:31:45;;;;;;;7.22;2.40;;;;;;;17.00;66.55;98812.06;5053108;28;20056;-76
2023/07/25 06:34:11;;;;;;;7.78;2.60;;;;;;;17.06;66.38;98803.53;5064267;28;20735;-76
2023/07/25 06:36:38;;;;;;;7.40;2.25;;;;;;;17.13;66.68;98811.75;5067923;28;20050;-77
2023/07/25 06:39:05;;;;;;;10.63;3.30;;;;;;;17.19;66.85;98816.44;5031763;28;20049;-75
2023/07/25 06:41:31;;;;;;;5.35;2.30;;;;;;;17.25;66.17;98817.63;5040547;28;20081;-75
2023/07/25 06:43:58;;;;;;;6.90;2.28;;;;;;;17.30;65.95;98804.72;5071649;28;20048;-76
2023/07/25 06:46:25;;;;;;;4.28;2.58;;;;;;;17.34;65.80;98812.38;5051848;28;20395;-76
2023/07/25 06:48:52;;;;;;;5.32;2.20;;;;;;;17.37;66.04;98812.06;5031167;28;20049;-78
2023/07/25 06:51:20;;;;;;;5.20;2.30;;;;;;;17.40;65.78;98809.94;5031193;28;20060;-76
2023/07/25 06:53:47;;;;;;;3.83;1.98;;;;;;;17.47;65.96;98815.47;5031440;28;20045;-76
2023/07/25 06:56:13;;;;;;;6.28;2.40;;;;;;;17.51;65.67;98821.31;5044161;28;20071;-75
2023/07/25 06:58:40;;;;;;;6.47;2.20;;;;;;;17.54;65.49;98827.16;5057227;28;20052;-76
2023/07/25 07:01:07;;;;;;;8.35;2.95;;;;;;;17.60;65.64;98824.88;5051327;28;20543;-76
2023/07/25 07:03:33;;;;;;;5.53;2.55;;;;;;;17.63;65.30;98825.38;5067555;28;20049;-76
2023/07/25 07:06:00;;;;;;;9.40;2.40;;;;;;;17.67;65.39;98826.75;5069144;28;20048;-76
2023/07/25 07:08:27;;;;;;;7.88;2.65;;;;;;;17.71;65.76;98825.44;5050730;28;20049;-77
2023/07/25 07:10:54;;;;;;;6.78;2.42;;;;;;;17.77;65.80;98837.28;5034717;28;20478;-76
2023/07/25 07:13:21;;;;;;;6.00;2.35;;;;;;;17.84;65.41;98842.81;5065490;28;20049;-75
2023/07/25 07:15:49;;;;;;;4.70;2.47;;;;;;;17.91;65.21;98835.03;5070549;28;20048;-77
2023/07/25 07:18:15;;;;;;;6.25;2.28;;;;;;;17.95;65.18;98831.06;5070704;28;20053;-75
2023/07/25 07:20:49;;;;;;;7.97;2.60;;;;;;;17.98;64.71;98838.72;5060561;28;20049;-76
2023/07/25 07:23:16;;;;;;;5.25;2.40;;;;;;;18.06;64.70;98840.59;5033937;28;20054;-75
2023/07/25 07:25:44;;;;;;;6.95;2.75;;;;;;;18.10;64.62;98839.31;5047757;28;20528;-76
2023/07/25 07:28:11;;;;;;;7.60;2.00;;;;;;;18.15;64.96;98845.00;5050456;28;20448;-76
2023/07/25 07:30:38;;;;;;;3.88;2.10;;;;;;;18.21;64.62;98836.38;5066277;28;20056;-76
2023/07/25 07:33:05;;;;;;;8.02;2.30;;;;;;;18.28;65.06;98849.88;5070834;28;20058;-76
2023/07/25 07:35:32;;;;;;;6.70;2.20;;;;;;;18.35;65.07;98852.72;5070454;28;20062;-76
2023/07/25 07:37:59;;;;;;;4.68;1.90;;;;;;;18.41;64.52;98852.09;5053287;28;20053;-76
2023/07/25 07:40:26;;;;;;;7.15;2.55;;;;;;;18.48;63.90;98858.47;5065829;28;20087;-75
2023/07/25 07:42:53;;;;;;;6.60;2.85;;;;;;;18.53;64.40;98852.63;5069005;28;20156;-76
2023/07/25 07:45:21;;;;;;;5.78;2.15;;;;;;;18.60;64.51;98845.69;5070634;28;20519;-76
2023/07/25 07:47:48;;;;;;;6.40;2.45;;;;;;;18.70;65.18;98850.88;5058258;28;20444;-75
2023/07/25 07:50:15;;;;;;;9.25;2.92;;;;;;;18.80;64.31;98842.72;5049990;28;20045;-76
2023/07/25 07:52:42;;;;;;;6.63;2.05;;;;;;;18.90;64.11;98847.91;5058791;28;20064;-76
2023/07/25 07:55:10;;;;;;;7.45;2.13;;;;;;;19.00;63.89;98845.91;5070043;28;20066;-76
2023/07/25 07:57:44;;;;;;;9.05;2.08;;;;;;;19.08;63.24;98845.13;5067562;28;20068;-77
2023/07/25 08:00:13;;;;;;;8.23;2.40;;;;;;;19.18;62.88;98844.13;5049729;28;20485;-77
2023/07/25 08:02:41;;;;;;;6.95;1.98;;;;;;;19.25;63.22;98847.81;5032892;28;20077;-76
2023/07/25 08:05:08;;;;;;;8.23;2.05;;;;;;;19.33;63.19;98852.31;5049621;28;20049;-77
2023/07/25 08:07:35;;;;;;;5.13;1.80;;;;;;;19.44;63.19;98845.78;5057807;28;20489;-77
2023/07/25 08:10:03;;;;;;;4.65;2.08;;;;;;;19.55;63.23;98856.09;5069671;28;20049;-77
2023/07/25 08:12:30;;;;;;;4.68;1.85;;;;;;;19.67;62.81;98844.09;5049461;28;20040;-77
2023/07/25 08:15:08;;;;;;;4.45;1.85;;;;;;;19.83;62.28;98846.91;5070465;28;20056;-76
2023/07/25 08:17:35;;;;;;;6.65;2.20;;;;;;;19.96;62.47;98841.03;5060310;28;20076;-76
2023/07/25 08:20:02;;;;;;;6.35;1.92;;;;;;;20.08;62.36;98839.69;5050061;28;20493;-77
2023/07/25 08:22:35;;;;;;;7.25;2.28;;;;;;;20.23;62.09;98853.19;5058105;28;20060;-77
2023/07/25 08:25:02;;;;;;;5.00;1.55;;;;;;;20.38;61.97;98855.94;5068495;28;20151;-76
2023/07/25 08:27:28;;;;;;;4.70;1.65;;;;;;;20.50;61.31;98856.38;5060967;28;20051;-77
2023/07/25 08:29:55;;;;;;;6.07;1.58;;;;;;;20.61;60.76;98860.50;5049915;28;20095;-76
2023/07/25 08:32:24;;;;;;;6.75;1.63;;;;;;;20.68;60.22;98861.47;5049928;28;20420;-77
2023/07/25 08:34:50;;;;;;;5.13;1.45;;;;;;;20.76;59.60;98865.94;5050025;28;20045;-76
2023/07/25 08:37:17;;;;;;;7.00;2.42;;;;;;;20.82;58.80;98862.56;5070799;28;20088;-76
2023/07/25 08:39:44;;;;;;;27.52;6.70;;;;;;;20.88;58.84;98866.41;5073665;28;20515;-76
2023/07/25 08:42:11;;;;;;;67.40;14.57;;;;;;;20.93;58.66;98877.41;5066741;28;20057;-76
2023/07/25 08:44:39;;;;;;;12.40;3.80;;;;;;;20.98;57.98;98876.03;5053362;28;20061;-77
2023/07/25 08:47:27;;;;;;;7.38;2.35;;;;;;;21.00;57.46;98884.75;5053553;28;20080;-76
2023/07/25 08:49:56;;;;;;;2.92;1.52;;;;;;;21.06;57.18;98879.50;5053541;28;20087;-77
2023/07/25 08:52:27;;;;;;;3.10;1.27;;;;;;;21.04;56.41;98873.47;5055098;28;20041;-77
2023/07/25 08:54:55;;;;;;;2.85;1.20;;;;;;;21.01;56.07;98886.41;5055825;28;20059;-76
2023/07/25 08:57:23;;;;;;;2.47;1.20;;;;;;;20.92;56.08;98888.28;5056312;28;20041;-76
2023/07/25 08:59:52;;;;;;;6.50;1.85;;;;;;;20.82;55.93;98888.50;5055607;28;20155;-76
2023/07/25 09:02:20;;;;;;;6.05;1.55;;;;;;;20.70;55.82;98886.19;5053558;28;20048;-77
2023/07/25 09:04:47;;;;;;;1.88;1.17;;;;;;;20.59;56.11;98897.28;5041479;28;20493;-77
2023/07/25 09:07:14;;;;;;;4.68;1.35;;;;;;;20.49;56.03;98894.84;5066582;28;20127;-77
2023/07/25 09:09:41;;;;;;;2.90;1.10;;;;;;;20.41;56.22;98897.53;5053071;28;20064;-77
2023/07/25 09:12:08;;;;;;;3.97;1.60;;;;;;;20.35;56.67;98899.06;5053147;28;20053;-77
2023/07/25 09:14:39;;;;;;;3.38;1.50;;;;;;;20.31;56.84;98900.41;5053064;28;20118;-77
2023/07/25 09:17:06;;;;;;;3.65;1.70;;;;;;;20.29;57.30;98894.38;5057379;28;20052;-78
2023/07/25 09:19:33;;;;;;;5.85;1.90;;;;;;;20.30;57.27;98886.19;5071387;28;20405;-78
2023/07/25 09:24:39;;;;;;;5.93;1.60;;;;;;;20.37;57.23;98898.88;5056005;22;20458;-81
2023/07/25 09:27:16;;;;;;;6.75;2.40;;;;;;;20.39;57.20;98894.19;5033685;28;20569;-81
2023/07/25 09:29:43;;;;;;;9.90;3.38;;;;;;;20.48;57.69;98897.69;5051606;28;20111;-82
2023/07/25 09:32:22;;;;;;;8.27;2.72;;;;;;;20.50;57.15;98895.66;5044195;28;20426;-81
2023/07/25 09:34:59;;;;;;;11.55;3.08;;;;;;;20.58;56.99;98890.25;5052892;28;20049;-80
2023/07/25 09:37:28;;;;;;;19.90;5.35;;;;;;;20.67;57.08;98897.22;5048535;28;20045;-81
2023/07/25 09:39:54;;;;;;;46.30;10.20;;;;;;;20.74;56.76;98893.88;5051558;28;20485;-82
2023/07/25 09:42:25;;;;;;;113.55;28.98;;;;;;;20.79;56.37;98888.84;5052418;28;20056;-80
2023/07/25 09:44:53;;;;;;;26.30;7.65;;;;;;;20.83;56.19;98887.47;5034541;28;20505;-83
2023/07/25 09:47:27;;;;;;;6.72;2.35;;;;;;;20.87;55.39;98899.53;5057145;28;20056;-82
2023/07/25 09:49:56;;;;;;;7.88;1.65;;;;;;;20.95;56.25;98887.94;5070043;28;20044;-81
2023/07/25 09:52:23;;;;;;;3.63;1.58;;;;;;;21.03;56.40;98895.06;5069564;28;20048;-82
2023/07/25 09:54:50;;;;;;;5.60;1.67;;;;;;;21.13;56.35;98889.50;5065642;28;20041;-83
2023/07/25 09:57:17;;;;;;;5.97;1.52;;;;;;;21.25;56.49;98889.91;5056675;28;20048;-82
2023/07/25 09:59:47;;;;;;;4.38;1.38;;;;;;;21.38;55.49;98882.09;5058543;28;20491;-80
2023/07/25 10:02:15;;;;;;;3.88;1.38;;;;;;;21.52;55.52;98882.34;5049576;28;20407;-83
2023/07/25 10:04:41;;;;;;;4.43;1.27;;;;;;;21.65;55.69;98893.28;5069002;28;20106;-83
2023/07/25 10:07:08;;;;;;;4.57;1.70;;;;;;;21.81;55.17;98880.75;5042157;28;20049;-83
2023/07/25 10:09:37;;;;;;;4.80;1.90;;;;;;;21.95;54.39;98881.78;5029954;28;20745;-82
2023/07/25 10:12:03;;;;;;;5.47;1.70;;;;;;;22.08;54.22;98887.34;5033020;28;20642;-83
2023/07/25 10:14:30;;;;;;;7.25;1.38;;;;;;;22.19;53.22;98883.38;5034245;28;20048;-83
2023/07/25 10:16:58;;;;;;;4.00;1.65;;;;;;;22.24;52.76;98880.97;5050608;28;20103;-83
2023/07/25 10:19:25;;;;;;;2.72;1.38;;;;;;;22.27;53.00;98885.13;5050672;28;20040;-82
2023/07/25 10:21:53;;;;;;;5.13;1.55;;;;;;;22.30;52.69;98883.91;5060710;28;20118;-82
2023/07/25 10:24:20;;;;;;;6.55;1.88;;;;;;;22.31;53.04;98882.91;5048821;28;20049;-81
2023/07/25 10:27:00;;;;;;;4.15;1.50;;;;;;;22.31;51.85;98880.22;5052366;28;20051;-82
2023/07/25 10:29:38;;;;;;;5.13;1.60;;;;;;;22.31;52.00;98889.09;5041242;28;20045;-82
2023/07/25 10:32:05;;;;;;;6.60;1.65;;;;;;;22.35;52.48;98887.69;5048147;28;20079;-82
2023/07/25 10:35:01;;;;;;;6.05;1.45;;;;;;;22.33;51.56;98886.22;5051867;28;20498;-82
2023/07/25 10:37:30;;;;;;;4.68;1.58;;;;;;;22.38;51.98;98891.84;5052497;28;20140;-83
2023/07/25 10:40:15;;;;;;;6.68;1.70;;;;;;;22.36;51.69;98891.22;5070417;28;20387;-83
2023/07/25 10:42:47;;;;;;;5.32;1.58;;;;;;;22.43;52.17;98886.75;5052306;28;20051;-81
2023/07/25 10:45:29;;;;;;;7.13;1.60;;;;;;;22.50;51.93;98884.19;5068886;28;20056;-82
2023/07/25 10:47:58;;;;;;;3.90;1.20;;;;;;;22.65;51.54;98881.50;5057305;28;20127;-81
2023/07/25 10:50:26;;;;;;;3.58;1.17;;;;;;;22.75;51.04;98874.00;5033287;28;20284;-82
2023/07/25 10:52:52;;;;;;;2.55;1.00;;;;;;;22.88;50.74;98881.34;5050358;28;20080;-82
2023/07/25 10:55:19;;;;;;;5.32;1.27;;;;;;;23.00;50.37;98881.69;5050749;28;20084;-81
2023/07/25 10:58:15;;;;;;;2.60;1.08;;;;;;;23.16;50.39;98882.47;5033415;28;20140;-81
2023/07/25 11:01:15;;;;;;;3.15;1.23;;;;;;;23.38;49.91;98874.41;4998562;28;20422;-85
2023/07/25 11:03:45;;;;;;;2.17;0.98;;;;;;;23.71;51.50;98868.50;5039965;28;20091;-81
2023/07/25 11:06:32;;;;;;;3.72;1.40;;;;;;;23.94;50.12;98860.19;5049991;28;20052;-81
2023/07/25 11:08:58;;;;;;;3.60;1.40;;;;;;;24.23;50.11;98865.53;5031592;28;20057;-81
2023/07/25 11:11:25;;;;;;;3.42;1.17;;;;;;;24.48;49.71;98865.00;5049457;28;20491;-80
2023/07/25 11:13:52;;;;;;;4.85;1.30;;;;;;;24.71;49.20;98869.25;5068978;28;20055;-82
2023/07/25 11:16:21;;;;;;;3.85;1.27;;;;;;;24.88;47.11;98861.66;5069347;28;20487;-82
2023/07/25 11:18:51;;;;;;;5.97;1.20;;;;;;;24.98;47.27;98858.56;5069700;28;20080;-81
2023/07/25 11:21:18;;;;;;;3.33;1.10;;;;;;;25.10;47.52;98853.41;5068259;28;20347;-81
2023/07/25 11:23:44;;;;;;;4.10;1.55;;;;;;;25.26;46.69;98857.56;5049786;28;20044;-81
2023/07/25 11:26:12;;;;;;;4.57;1.40;;;;;;;25.50;47.27;98863.38;5049448;28;20052;-81
2023/07/25 11:28:39;;;;;;;5.05;1.20;;;;;;;25.76;46.40;98862.53;5047831;28;20055;-80
2023/07/25 11:31:05;;;;;;;1.85;0.98;;;;;;;25.99;45.07;98861.28;5049403;28;20083;-81
2023/07/25 11:33:41;;;;;;;3.50;1.08;;;;;;;26.11;43.50;98869.53;5049330;28;20459;-82
2023/07/25 11:36:08;;;;;;;3.72;1.10;;;;;;;26.22;44.58;98854.56;5049623;28;20048;-81
2023/07/25 11:38:35;;;;;;;5.72;1.17;;;;;;;26.26;44.19;98866.63;5049105;28;20081;-81